createdAt,value
2019-04-26T00:00:53.264Z,28.10
2019-04-26T00:03:28.086Z,25.87
2019-04-26T00:05:58.011Z,30.90
2019-04-26T00:08:27.327Z,30.70
2019-04-26T00:11:18.440Z,26.90
2019-04-26T00:14:05.557Z,29.33
2019-04-26T00:16:50.060Z,27.50
2019-04-26T00:19:19.312Z,26.63
2019-04-26T00:21:48.947Z,28.07
2019-04-26T00:24:19.351Z,27.23
2019-04-26T00:26:48.811Z,27.53
2019-04-26T00:29:18.928Z,30.43
2019-04-26T00:31:48.435Z,28.30
2019-04-26T00:34:17.801Z,27.20
2019-04-26T00:36:47.153Z,25.87
2019-04-26T00:39:16.431Z,27.10
2019-04-26T00:41:46.674Z,25.97
2019-04-26T00:44:16.593Z,30.90
2019-04-26T00:46:48.389Z,28.30
2019-04-26T00:49:19.219Z,27.57
2019-04-26T00:51:50.291Z,28.30
2019-04-26T00:54:20.759Z,27.17
2019-04-26T00:56:50.390Z,26.67
2019-04-26T00:59:20.536Z,30.60
2019-04-26T01:01:53.762Z,30.90
2019-04-26T01:04:23.107Z,32.07
2019-04-26T01:06:54.521Z,24.20
2019-04-26T01:09:23.959Z,27.67
2019-04-26T01:11:53.211Z,28.40
2019-04-26T01:14:22.455Z,29.80
2019-04-26T01:16:51.747Z,26.63
2019-04-26T01:19:24.574Z,26.73
2019-04-26T01:21:58.046Z,29.07
2019-04-26T01:24:30.244Z,28.30
2019-04-26T01:27:01.777Z,28.60
2019-04-26T01:29:32.508Z,30.73
2019-04-26T01:32:09.553Z,28.73
2019-04-26T01:34:41.541Z,27.80
2019-04-26T01:37:12.097Z,28.70
2019-04-26T01:39:46.270Z,30.13
2019-04-26T01:42:33.360Z,28.90
2019-04-26T01:45:16.300Z,31.40
2019-04-26T01:47:47.344Z,29.73
2019-04-26T01:50:17.277Z,28.77
2019-04-26T01:52:47.881Z,28.90
2019-04-26T01:55:18.042Z,28.03
2019-04-26T01:57:47.591Z,30.77
2019-04-26T02:00:39.245Z,30.83
2019-04-26T02:03:18.868Z,27.17
2019-04-26T02:05:48.779Z,26.90
2019-04-26T02:08:19.076Z,29.37
2019-04-26T02:10:48.484Z,31.03
2019-04-26T02:13:17.884Z,27.27
2019-04-26T02:15:47.130Z,27.97
2019-04-26T02:18:16.387Z,32.70
2019-04-26T02:21:10.824Z,25.17
2019-04-26T02:23:46.447Z,26.20
2019-04-26T02:26:34.911Z,31.33
2019-04-26T02:29:07.462Z,35.23
2019-04-26T02:31:38.373Z,27.80
2019-04-26T02:34:08.164Z,25.37
2019-04-26T02:36:56.178Z,24.10
2019-04-26T02:39:21.562Z,29.30
2019-04-26T02:41:54.680Z,25.00
2019-04-26T02:44:31.327Z,30.03
2019-04-26T02:47:50.605Z,29.57
2019-04-26T02:50:31.165Z,28.87
2019-04-26T02:53:08.573Z,29.50
2019-04-26T02:56:12.997Z,29.23
2019-04-26T02:59:13.070Z,28.87
2019-04-26T03:01:42.868Z,26.17
2019-04-26T03:04:12.623Z,29.00
2019-04-26T03:07:01.907Z,28.17
2019-04-26T03:09:17.003Z,25.63
2019-04-26T03:11:49.739Z,25.77
2019-04-26T03:14:38.501Z,25.27
2019-04-26T03:17:24.016Z,25.10
2019-04-26T03:19:59.503Z,30.13
2019-04-26T03:22:51.999Z,32.00
2019-04-26T03:25:59.493Z,31.30
2019-04-26T03:28:46.751Z,26.77
2019-04-26T03:31:26.508Z,25.67
2019-04-26T03:34:13.621Z,25.40
2019-04-26T03:37:28.289Z,25.73
2019-04-26T03:40:13.988Z,28.30
2019-04-26T03:43:06.495Z,31.53
2019-04-26T03:45:51.208Z,24.83
2019-04-26T03:48:35.919Z,28.07
2019-04-26T03:51:13.566Z,27.17
2019-04-26T03:53:56.214Z,26.90
2019-04-26T03:57:03.252Z,29.90
2019-04-26T03:59:53.994Z,31.10
2019-04-26T04:02:59.060Z,29.60
2019-04-26T04:05:44.172Z,31.27
2019-04-26T04:08:20.463Z,26.87
2019-04-26T04:11:01.020Z,26.07
2019-04-26T04:13:58.699Z,27.97
2019-04-26T04:17:01.174Z,23.93
2019-04-26T04:20:14.740Z,24.87
2019-04-26T04:22:49.401Z,27.33
2019-04-26T04:25:29.678Z,26.13
2019-04-26T04:28:07.131Z,28.77
2019-04-26T04:31:05.211Z,26.53
2019-04-26T04:34:07.528Z,26.97
2019-04-26T04:36:48.881Z,25.90
2019-04-26T04:39:40.873Z,25.33
2019-04-26T04:42:29.693Z,26.87
2019-04-26T04:45:26.662Z,26.90
2019-04-26T04:48:21.437Z,24.07
2019-04-26T04:51:01.722Z,29.17
2019-04-26T04:53:53.497Z,28.27
2019-04-26T04:56:41.520Z,27.53
2019-04-26T04:59:14.566Z,25.70
2019-04-26T05:02:31.777Z,27.17
2019-04-26T05:05:40.091Z,24.47
2019-04-26T05:08:23.801Z,25.23
2019-04-26T05:11:04.227Z,24.70
2019-04-26T05:13:45.238Z,25.03
2019-04-26T05:16:46.536Z,22.43
2019-04-26T05:19:48.604Z,22.13
2019-04-26T05:23:07.660Z,26.77
2019-04-26T05:26:29.077Z,28.73
2019-04-26T05:29:39.666Z,24.37
2019-04-26T05:32:28.966Z,25.17
2019-04-26T05:35:12.177Z,27.33
2019-04-26T05:38:18.554Z,21.27
2019-04-26T05:41:11.129Z,24.80
2019-04-26T05:43:58.029Z,26.57
2019-04-26T05:47:23.338Z,24.47
2019-04-26T05:50:25.589Z,23.97
2019-04-26T05:54:01.391Z,24.03
2019-04-26T05:56:52.720Z,24.73
2019-04-26T06:00:50.547Z,23.50
2019-04-26T06:04:04.225Z,22.07
2019-04-26T06:06:44.782Z,20.03
2019-04-26T06:10:05.115Z,21.93
2019-04-26T06:12:46.611Z,25.13
2019-04-26T06:15:44.451Z,24.07
2019-04-26T06:18:44.797Z,21.80
2019-04-26T06:21:44.571Z,22.43
2019-04-26T06:24:26.310Z,28.30
2019-04-26T06:27:33.401Z,19.37
2019-04-26T06:30:15.041Z,25.80
2019-04-26T06:33:00.379Z,23.40
2019-04-26T06:35:27.051Z,27.40
2019-04-26T06:38:25.477Z,25.63
2019-04-26T06:41:40.002Z,29.60
2019-04-26T06:44:14.892Z,18.47
2019-04-26T06:47:07.067Z,22.40
2019-04-26T06:50:18.075Z,19.60
2019-04-26T06:52:56.665Z,23.60
2019-04-26T06:55:39.461Z,24.67
2019-04-26T06:58:46.134Z,15.70
2019-04-26T07:01:53.106Z,22.47
2019-04-26T07:05:01.075Z,24.67
2019-04-26T07:08:06.876Z,39.90
2019-04-26T07:11:12.071Z,17.73
2019-04-26T07:14:22.250Z,27.57
2019-04-26T07:16:58.211Z,17.10
2019-04-26T07:20:30.281Z,23.87
2019-04-26T07:23:34.474Z,16.37
2019-04-26T07:26:39.539Z,21.23
2019-04-26T07:29:46.011Z,19.57
2019-04-26T07:32:33.198Z,18.00
2019-04-26T07:35:19.249Z,20.57
2019-04-26T07:38:52.477Z,23.20
2019-04-26T07:41:55.883Z,16.27
2019-04-26T07:44:46.130Z,20.73
2019-04-26T07:47:42.706Z,16.43
2019-04-26T07:50:38.228Z,14.53
2019-04-26T07:53:45.179Z,18.07
2019-04-26T07:56:58.354Z,17.62
2019-04-26T07:59:52.451Z,16.82
2019-04-26T08:02:56.497Z,15.65
2019-04-26T08:05:38.833Z,17.05
2019-04-26T08:08:10.884Z,17.40
2019-04-26T08:10:42.958Z,15.43
2019-04-26T08:13:16.369Z,15.50
2019-04-26T08:16:27.014Z,21.57
2019-04-26T08:19:01.938Z,21.37
2019-04-26T08:21:37.008Z,17.75
2019-04-26T08:24:27.884Z,18.62
2019-04-26T08:27:22.817Z,11.73
2019-04-26T08:29:49.129Z,15.65
2019-04-26T08:32:23.153Z,13.58
2019-04-26T08:35:09.999Z,14.98
2019-04-26T08:37:59.296Z,13.48
2019-04-26T08:40:31.414Z,18.15
2019-04-26T08:43:20.506Z,17.32
2019-04-26T08:46:16.331Z,13.85
2019-04-26T08:48:53.076Z,14.10
2019-04-26T08:51:24.942Z,17.25
2019-04-26T08:53:58.180Z,14.47
2019-04-26T08:56:33.350Z,14.35
2019-04-26T08:59:09.755Z,12.45
2019-04-26T09:01:50.080Z,19.92
2019-04-26T09:04:28.650Z,14.43
2019-04-26T09:07:09.154Z,18.60
2019-04-26T09:09:41.302Z,14.07
2019-04-26T09:12:22.924Z,14.43
2019-04-26T09:14:51.669Z,15.45
2019-04-26T09:17:20.975Z,14.43
2019-04-26T09:19:50.253Z,15.38
2019-04-26T09:22:27.641Z,14.38
2019-04-26T09:25:02.020Z,12.00
2019-04-26T09:28:02.970Z,15.68
2019-04-26T09:30:51.519Z,16.73
2019-04-26T09:33:26.981Z,11.48
2019-04-26T09:35:56.264Z,18.67
2019-04-26T09:38:25.379Z,13.38
2019-04-26T09:40:56.203Z,12.13
2019-04-26T09:43:31.981Z,13.03
2019-04-26T09:46:07.774Z,16.65
2019-04-26T09:48:59.051Z,13.90
2019-04-26T09:51:28.512Z,17.95
2019-04-26T09:53:57.735Z,18.60
2019-04-26T09:56:27.031Z,15.93
2019-04-26T09:58:56.383Z,13.98
2019-04-26T10:01:26.067Z,14.65
2019-04-26T10:03:55.343Z,14.83
2019-04-26T10:06:26.173Z,13.62
2019-04-26T10:08:55.676Z,12.30
2019-04-26T10:11:27.456Z,13.70
2019-04-26T10:14:06.283Z,13.58
2019-04-26T10:16:57.579Z,13.15
2019-04-26T10:19:54.578Z,16.93
2019-04-26T10:22:25.899Z,15.48
2019-04-26T10:24:55.154Z,14.30
2019-04-26T10:27:24.448Z,9.93
2019-04-26T10:29:56.561Z,15.58
2019-04-26T10:32:26.389Z,19.10
2019-04-26T10:34:56.104Z,15.13
2019-04-26T10:37:25.502Z,22.55
2019-04-26T10:39:54.735Z,40.88
2019-04-26T10:42:24.501Z,20.00
2019-04-26T10:44:53.756Z,19.45
2019-04-26T10:47:23.108Z,14.87
2019-04-26T10:49:54.429Z,22.75
2019-04-26T10:52:39.093Z,16.48
2019-04-26T10:55:26.985Z,19.90
2019-04-26T10:57:59.577Z,9.70
2019-04-26T11:00:34.749Z,17.40
2019-04-26T11:03:05.981Z,14.25
2019-04-26T11:05:35.192Z,20.43
2019-04-26T11:08:04.639Z,18.57
2019-04-26T11:10:47.668Z,12.88
2019-04-26T11:13:06.503Z,38.42
2019-04-26T11:15:35.894Z,14.10
2019-04-26T11:18:05.868Z,11.70
2019-04-26T11:20:35.122Z,16.50
2019-04-26T11:23:04.421Z,11.88
2019-04-26T11:25:33.720Z,13.43
2019-04-26T11:28:02.955Z,13.25
2019-04-26T11:30:32.254Z,10.80
2019-04-26T11:33:01.595Z,13.28
2019-04-26T11:35:33.278Z,15.18
2019-04-26T11:38:02.009Z,12.13
2019-04-26T11:40:31.271Z,13.43
2019-04-26T11:43:00.529Z,10.70
2019-04-26T11:45:29.888Z,14.47
2019-04-26T11:47:59.962Z,12.50
2019-04-26T11:50:29.212Z,83.03
2019-04-26T11:52:58.494Z,50.90
2019-04-26T11:55:29.956Z,50.00
2019-04-26T11:57:58.743Z,23.02
2019-04-26T12:00:32.933Z,16.60
2019-04-26T12:03:02.194Z,30.27
2019-04-26T12:05:58.203Z,20.55
2019-04-26T12:08:56.707Z,20.70
2019-04-26T12:11:32.522Z,696.20
2019-04-26T12:13:59.539Z,1069.80
2019-04-26T12:16:27.861Z,807.83
2019-04-26T12:18:57.156Z,14.10
2019-04-26T12:21:26.405Z,13.60
2019-04-26T12:23:56.426Z,11.30
2019-04-26T12:26:27.355Z,13.45
2019-04-26T12:28:57.488Z,14.38
2019-04-26T12:31:28.968Z,12.80
2019-04-26T12:33:58.584Z,13.80
2019-04-26T12:36:28.361Z,15.70
2019-04-26T12:38:58.150Z,11.63
2019-04-26T12:41:39.782Z,14.87
2019-04-26T12:44:03.256Z,13.80
2019-04-26T12:46:41.867Z,13.03
2019-04-26T12:49:11.691Z,13.88
2019-04-26T12:51:42.908Z,18.92
2019-04-26T12:54:11.940Z,13.28
2019-04-26T12:56:41.256Z,17.62
2019-04-26T12:59:10.517Z,15.72
2019-04-26T13:01:42.700Z,11.22
2019-04-26T13:04:10.971Z,17.25
2019-04-26T13:06:48.225Z,20.12
2019-04-26T13:09:26.622Z,20.02
2019-04-26T13:12:07.868Z,17.85
2019-04-26T13:15:13.193Z,18.57
2019-04-26T13:17:45.255Z,16.37
2019-04-26T13:20:14.422Z,12.50
2019-04-26T13:22:46.163Z,11.65
2019-04-26T13:25:24.732Z,15.03
2019-04-26T13:27:46.702Z,13.08
2019-04-26T13:30:16.004Z,13.40
2019-04-26T13:32:49.316Z,18.00
2019-04-26T13:35:16.524Z,14.73
2019-04-26T13:37:45.909Z,11.33
2019-04-26T13:40:15.211Z,17.20
2019-04-26T13:42:47.500Z,16.57
2019-04-26T13:45:23.899Z,14.30
2019-04-26T13:48:14.924Z,14.98
2019-04-26T13:50:49.429Z,14.53
2019-04-26T13:53:18.674Z,10.30
2019-04-26T13:55:47.938Z,13.72
2019-04-26T13:58:20.798Z,13.40
2019-04-26T14:00:48.198Z,10.30
2019-04-26T14:03:17.471Z,14.50
2019-04-26T14:05:47.185Z,12.98
2019-04-26T14:08:17.738Z,9.83
2019-04-26T14:10:49.773Z,14.35
2019-04-26T14:13:20.714Z,9.55
2019-04-26T14:15:51.883Z,17.77
2019-04-26T14:18:20.233Z,11.28
2019-04-26T14:20:49.682Z,12.88
2019-04-26T14:23:33.756Z,13.22
2019-04-26T14:26:08.904Z,12.82
2019-04-26T14:28:38.158Z,12.73
2019-04-26T14:31:07.497Z,15.20
2019-04-26T14:33:36.921Z,15.95
2019-04-26T14:36:17.092Z,17.70
2019-04-26T14:38:40.043Z,13.68
2019-04-26T14:41:08.845Z,21.97
2019-04-26T14:43:41.000Z,14.50
2019-04-26T14:46:10.388Z,14.93
2019-04-26T14:48:44.118Z,13.22
2019-04-26T14:51:12.293Z,17.80
2019-04-26T14:53:42.879Z,19.00
2019-04-26T14:56:12.191Z,16.17
2019-04-26T14:58:42.309Z,12.88
2019-04-26T15:01:17.360Z,15.68
2019-04-26T15:04:08.679Z,16.82
2019-04-26T15:06:42.369Z,14.80
2019-04-26T15:09:19.884Z,16.82
2019-04-26T15:11:53.485Z,15.55
2019-04-26T15:14:19.423Z,15.08
2019-04-26T15:16:46.060Z,17.20
2019-04-26T15:19:15.461Z,12.05
2019-04-26T15:21:44.843Z,17.55
2019-04-26T15:24:14.288Z,12.35
2019-04-26T15:26:43.517Z,19.95
2019-04-26T15:29:12.815Z,13.62
2019-04-26T15:31:43.451Z,11.73
2019-04-26T15:34:12.728Z,15.70
2019-04-26T15:36:43.451Z,16.82
2019-04-26T15:39:23.217Z,13.75
2019-04-26T15:42:15.003Z,12.23
2019-04-26T15:44:53.419Z,16.42
2019-04-26T15:47:42.222Z,12.68
2019-04-26T15:50:33.582Z,13.83
2019-04-26T15:53:06.607Z,14.45
2019-04-26T15:55:39.674Z,11.28
2019-04-26T15:58:08.329Z,19.30
2019-04-26T16:00:36.184Z,16.48
2019-04-26T16:03:07.444Z,20.65
2019-04-26T16:05:36.855Z,15.60
2019-04-26T16:08:06.172Z,13.48
2019-04-26T16:10:38.395Z,14.43
2019-04-26T16:13:18.062Z,18.48
2019-04-26T16:15:37.450Z,14.40
2019-04-26T16:18:10.704Z,19.00
2019-04-26T16:20:42.230Z,14.50
2019-04-26T16:23:09.172Z,16.07
2019-04-26T16:25:39.284Z,17.60
2019-04-26T16:28:30.846Z,17.62
2019-04-26T16:31:24.596Z,16.48
2019-04-26T16:33:57.228Z,14.50
2019-04-26T16:36:26.465Z,14.10
2019-04-26T16:38:57.959Z,18.45
2019-04-26T16:41:27.497Z,15.98
2019-04-26T16:43:57.878Z,17.98
2019-04-26T16:46:27.135Z,18.65
2019-04-26T16:49:03.225Z,15.25
2019-04-26T16:51:27.434Z,14.95
2019-04-26T16:54:06.668Z,17.48
2019-04-26T16:56:28.351Z,20.30
2019-04-26T16:58:57.922Z,16.10
2019-04-26T17:01:27.177Z,19.98
2019-04-26T17:03:56.482Z,14.63
2019-04-26T17:06:25.734Z,17.75
2019-04-26T17:09:01.171Z,15.70
2019-04-26T17:11:25.986Z,19.12
2019-04-26T17:13:56.990Z,20.05
2019-04-26T17:16:29.643Z,21.48
2019-04-26T17:18:59.690Z,17.77
2019-04-26T17:21:30.732Z,17.53
2019-04-26T17:24:12.271Z,19.03
2019-04-26T17:26:48.600Z,17.60
2019-04-26T17:29:17.971Z,15.80
2019-04-26T17:31:47.214Z,18.33
2019-04-26T17:34:16.460Z,16.53
2019-04-26T17:36:46.508Z,18.63
2019-04-26T17:39:18.284Z,21.47
2019-04-26T17:41:50.854Z,16.67
2019-04-26T17:44:20.600Z,17.23
2019-04-26T17:46:56.373Z,17.13
2019-04-26T17:49:26.978Z,16.97
2019-04-26T17:51:57.984Z,19.43
2019-04-26T17:54:41.611Z,17.23
2019-04-26T17:56:53.843Z,17.77
2019-04-26T17:59:33.613Z,20.23
2019-04-26T18:02:00.978Z,19.13
2019-04-26T18:04:34.543Z,16.63
2019-04-26T18:07:03.794Z,19.77
2019-04-26T18:09:41.378Z,20.17
2019-04-26T18:12:00.032Z,17.90
2019-04-26T18:14:30.677Z,17.90
2019-04-26T18:17:06.623Z,21.90
2019-04-26T18:19:43.090Z,23.43
2019-04-26T18:22:36.181Z,16.73
2019-04-26T18:25:10.767Z,19.73
2019-04-26T18:27:38.620Z,17.23
2019-04-26T18:30:12.258Z,16.57
2019-04-26T18:32:45.710Z,15.73
2019-04-26T18:35:15.201Z,16.33
2019-04-26T18:37:42.734Z,17.83
2019-04-26T18:40:12.755Z,21.57
2019-04-26T18:42:43.399Z,18.70
2019-04-26T18:45:13.929Z,28.17
2019-04-26T18:47:45.331Z,18.10
2019-04-26T18:50:15.568Z,24.73
2019-04-26T18:53:03.966Z,21.17
2019-04-26T18:55:34.539Z,16.07
2019-04-26T18:58:05.859Z,19.13
2019-04-26T19:00:39.895Z,18.83
2019-04-26T19:03:09.233Z,20.70
2019-04-26T19:05:38.698Z,20.47
2019-04-26T19:08:09.853Z,20.40
2019-04-26T19:10:39.167Z,18.70
2019-04-26T19:13:32.108Z,17.23
2019-04-26T19:16:10.518Z,19.40
2019-04-26T19:18:52.708Z,18.53
2019-04-26T19:21:39.085Z,23.30
2019-04-26T19:24:11.644Z,22.30
2019-04-26T19:26:37.482Z,20.20
2019-04-26T19:29:16.316Z,17.70
2019-04-26T19:31:37.757Z,17.67
2019-04-26T19:34:07.015Z,20.80
2019-04-26T19:36:36.281Z,19.63
2019-04-26T19:39:08.051Z,19.33
2019-04-26T19:41:37.486Z,20.77
2019-04-26T19:44:06.714Z,19.50
2019-04-26T19:47:02.157Z,19.57
2019-04-26T19:49:46.832Z,18.53
2019-04-26T19:52:47.418Z,18.53
2019-04-26T19:55:51.453Z,19.87
2019-04-26T19:58:23.415Z,19.73
2019-04-26T20:00:52.876Z,22.90
2019-04-26T20:03:25.371Z,17.83
2019-04-26T20:05:54.751Z,20.73
2019-04-26T20:08:24.011Z,20.43
2019-04-26T20:10:53.250Z,16.80
2019-04-26T20:13:22.526Z,15.70
2019-04-26T20:15:57.084Z,16.63
2019-04-26T20:18:23.951Z,22.63
2019-04-26T20:20:53.244Z,18.53
2019-04-26T20:23:22.912Z,18.60
2019-04-26T20:25:53.048Z,20.43
2019-04-26T20:28:22.999Z,18.83
2019-04-26T20:31:05.942Z,19.47
2019-04-26T20:33:31.564Z,18.40
2019-04-26T20:36:04.682Z,23.30
2019-04-26T20:38:35.873Z,21.93
2019-04-26T20:41:03.728Z,18.73
2019-04-26T20:43:36.784Z,19.90
2019-04-26T20:46:14.149Z,18.27
2019-04-26T20:48:35.887Z,19.10
2019-04-26T20:51:06.589Z,16.73
2019-04-26T20:53:40.956Z,19.60
2019-04-26T20:56:09.450Z,18.53
2019-04-26T20:58:45.433Z,18.50
2019-04-26T21:01:12.479Z,18.73
2019-04-26T21:03:44.605Z,23.40
2019-04-26T21:06:12.210Z,30.13
2019-04-26T21:08:42.335Z,19.90
2019-04-26T21:11:13.732Z,18.03
2019-04-26T21:13:43.134Z,17.73
2019-04-26T21:16:15.215Z,18.67
2019-04-26T21:18:44.415Z,17.37
2019-04-26T21:21:16.002Z,17.87
2019-04-26T21:23:47.309Z,22.93
2019-04-26T21:26:27.603Z,19.93
2019-04-26T21:29:20.474Z,16.67
2019-04-26T21:32:23.717Z,23.43
2019-04-26T21:34:53.962Z,18.70
2019-04-26T21:37:32.336Z,21.10
2019-04-26T21:40:26.183Z,21.10
2019-04-26T21:42:59.299Z,18.17
2019-04-26T21:45:29.715Z,17.27
2019-04-26T21:47:56.739Z,17.80
2019-04-26T21:50:29.126Z,18.20
2019-04-26T21:52:58.563Z,17.40
2019-04-26T21:55:35.335Z,18.53
2019-04-26T21:58:02.740Z,19.27
2019-04-26T22:00:57.131Z,18.37
2019-04-26T22:03:26.479Z,18.67
2019-04-26T22:05:55.725Z,19.17
2019-04-26T22:08:28.719Z,18.90
2019-04-26T22:10:58.057Z,18.73
2019-04-26T22:13:37.218Z,16.77
2019-04-26T22:16:30.675Z,18.50
2019-04-26T22:19:03.849Z,16.43
2019-04-26T22:21:43.530Z,20.30
2019-04-26T22:24:18.268Z,16.90
2019-04-26T22:26:48.196Z,17.03
2019-04-26T22:29:17.635Z,16.90
2019-04-26T22:31:46.933Z,15.47
2019-04-26T22:34:16.171Z,16.07
2019-04-26T22:36:45.434Z,19.20
2019-04-26T22:39:19.259Z,22.57
2019-04-26T22:41:48.510Z,19.20
2019-04-26T22:44:38.303Z,16.43
2019-04-26T22:47:40.875Z,19.50
2019-04-26T22:50:06.896Z,17.83
2019-04-26T22:52:36.173Z,17.67
2019-04-26T22:55:07.963Z,21.90
2019-04-26T22:57:37.253Z,18.37
2019-04-26T23:00:07.413Z,17.73
2019-04-26T23:02:36.739Z,20.13
2019-04-26T23:05:06.698Z,16.63
2019-04-26T23:07:35.928Z,16.73
2019-04-26T23:10:08.407Z,19.00
2019-04-26T23:13:14.938Z,18.50
2019-04-26T23:16:18.487Z,16.40
2019-04-26T23:18:58.790Z,17.43
2019-04-26T23:21:30.928Z,14.63
2019-04-26T23:24:00.195Z,19.80
2019-04-26T23:26:29.458Z,17.73
2019-04-26T23:28:58.718Z,18.10
2019-04-26T23:31:27.961Z,21.37
2019-04-26T23:33:57.271Z,18.37
2019-04-26T23:36:26.509Z,18.27
2019-04-26T23:38:55.754Z,16.07
2019-04-26T23:41:25.098Z,16.80
2019-04-26T23:44:02.504Z,18.67
2019-04-26T23:46:25.895Z,17.97
2019-04-26T23:48:55.611Z,17.57
2019-04-26T23:51:26.202Z,19.47
2019-04-26T23:53:57.760Z,18.73
2019-04-26T23:56:26.817Z,19.03
2019-04-26T23:58:56.104Z,18.47
